createdAt,value
2022-08-22T00:00:16.212Z,11.40
2022-08-22T00:03:02.493Z,12.40
2022-08-22T00:03:04.029Z,12.00
2022-08-22T00:03:09.860Z,10.50
2022-08-22T00:03:38.364Z,11.00
2022-08-22T00:06:49.431Z,11.70
2022-08-22T00:10:00.246Z,13.80
2022-08-22T00:13:14.314Z,15.30
2022-08-22T00:16:24.276Z,13.30
2022-08-22T00:19:34.274Z,13.30
2022-08-22T00:22:47.439Z,10.90
2022-08-22T00:25:57.362Z,14.50
2022-08-22T00:29:05.242Z,11.80
2022-08-22T00:32:17.261Z,11.80
2022-08-22T00:35:28.308Z,13.30
2022-08-22T00:38:41.329Z,11.40
2022-08-22T00:41:51.325Z,10.50
2022-08-22T00:45:01.349Z,11.00
2022-08-22T00:48:16.371Z,16.60
2022-08-22T00:51:29.510Z,11.20
2022-08-22T00:54:42.390Z,11.70
2022-08-22T00:57:55.412Z,12.60
2022-08-22T01:01:03.396Z,14.90
2022-08-22T01:04:13.355Z,14.50
2022-08-22T01:07:25.407Z,14.30
2022-08-22T01:10:45.406Z,13.10
2022-08-22T01:13:53.418Z,11.70
2022-08-22T01:17:06.502Z,11.70
2022-08-22T01:20:16.386Z,11.30
2022-08-22T01:23:23.476Z,13.60
2022-08-22T01:26:33.519Z,13.10
2022-08-22T01:29:42.634Z,17.10
2022-08-22T01:32:57.013Z,13.10
2022-08-22T01:36:04.478Z,11.70
2022-08-22T01:39:14.477Z,12.10
2022-08-22T01:42:24.505Z,13.90
2022-08-22T01:45:34.480Z,13.80
2022-08-22T01:48:41.511Z,12.80
2022-08-22T01:51:51.505Z,12.00
2022-08-22T01:55:01.496Z,12.10
2022-08-22T01:58:11.536Z,10.80
2022-08-22T02:01:21.567Z,12.50
2022-08-22T02:04:29.508Z,10.80
2022-08-22T02:07:36.606Z,13.40
2022-08-22T02:10:43.560Z,14.10
2022-08-22T02:13:53.552Z,12.00
2022-08-22T02:17:00.603Z,11.60
2022-08-22T02:20:13.653Z,15.70
2022-08-22T02:23:21.542Z,13.50
2022-08-22T02:26:31.594Z,11.30
2022-08-22T02:29:41.607Z,11.00
2022-08-22T02:32:51.659Z,14.00
2022-08-22T02:36:05.671Z,11.70
2022-08-22T02:39:15.640Z,14.40
2022-08-22T02:42:22.631Z,13.20
2022-08-22T02:45:39.745Z,14.20
2022-08-22T02:48:50.676Z,12.80
2022-08-22T02:52:00.610Z,16.90
2022-08-22T02:55:07.673Z,17.20
2022-08-22T02:58:14.736Z,12.70
2022-08-22T03:01:22.685Z,15.20
2022-08-22T03:04:36.711Z,16.60
2022-08-22T03:07:46.710Z,13.80
2022-08-22T03:10:53.665Z,17.70
2022-08-22T03:14:00.739Z,15.40
2022-08-22T03:17:12.813Z,17.40
2022-08-22T03:20:19.784Z,14.70
2022-08-22T03:23:29.741Z,13.60
2022-08-22T03:26:39.771Z,12.40
2022-08-22T03:29:49.844Z,13.50
2022-08-22T03:32:59.752Z,15.20
2022-08-22T03:36:06.811Z,12.30
2022-08-22T03:39:17.253Z,11.80
2022-08-22T03:42:27.758Z,15.20
2022-08-22T03:45:37.801Z,16.90
2022-08-22T03:48:44.916Z,13.80
2022-08-22T03:51:54.817Z,14.70
2022-08-22T03:55:07.777Z,11.90
2022-08-22T03:58:27.631Z,14.10
2022-08-22T04:01:38.896Z,15.50
2022-08-22T04:04:49.865Z,13.00
2022-08-22T04:07:56.956Z,13.30
2022-08-22T04:11:04.842Z,12.00
2022-08-22T04:14:11.938Z,18.00
2022-08-22T04:17:22.748Z,13.60
2022-08-22T04:20:29.879Z,15.20
2022-08-22T04:23:41.197Z,12.60
2022-08-22T04:26:48.966Z,13.60
2022-08-22T04:29:56.904Z,13.50
2022-08-22T04:33:06.916Z,15.40
2022-08-22T04:36:20.567Z,18.30
2022-08-22T04:39:27.981Z,15.50
2022-08-22T04:42:39.954Z,15.50
2022-08-22T04:45:46.972Z,14.70
2022-08-22T04:48:56.977Z,16.50
2022-08-22T04:52:07.177Z,16.10
2022-08-22T04:55:29.037Z,18.10
2022-08-22T04:58:47.056Z,16.30
2022-08-22T05:01:58.876Z,16.30
2022-08-22T05:05:13.589Z,13.20
2022-08-22T05:08:20.951Z,12.30
2022-08-22T05:11:29.056Z,16.40
2022-08-22T05:14:39.052Z,15.80
2022-08-22T05:17:48.026Z,17.50
2022-08-22T05:21:01.050Z,16.20
2022-08-22T05:24:10.995Z,13.90
2022-08-22T05:27:18.645Z,15.70
2022-08-22T05:30:26.081Z,13.70
2022-08-22T05:33:33.171Z,12.50
2022-08-22T05:36:43.110Z,14.40
2022-08-22T05:39:53.116Z,15.00
2022-08-22T05:43:03.121Z,17.50
2022-08-22T05:46:10.165Z,16.40
2022-08-22T05:49:20.192Z,16.00
2022-08-22T05:52:27.085Z,17.10
2022-08-22T05:55:38.200Z,16.20
2022-08-22T05:58:51.151Z,14.60
2022-08-22T06:02:01.302Z,13.30
2022-08-22T06:05:11.987Z,13.70
2022-08-22T06:08:21.237Z,13.00
2022-08-22T06:11:33.687Z,12.00
2022-08-22T06:14:44.258Z,10.10
2022-08-22T06:17:58.341Z,12.50
2022-08-22T06:21:06.160Z,11.80
2022-08-22T06:24:13.197Z,13.60
2022-08-22T06:27:27.319Z,10.50
2022-08-22T06:30:39.201Z,12.10
2022-08-22T06:33:55.252Z,11.90
2022-08-22T06:37:05.268Z,12.70
2022-08-22T06:40:18.267Z,11.80
2022-08-22T06:43:28.298Z,11.40
2022-08-22T06:46:38.248Z,12.20
2022-08-22T06:49:45.333Z,14.20
2022-08-22T06:52:55.522Z,14.40
2022-08-22T06:56:06.333Z,13.00
2022-08-22T06:59:21.226Z,13.00
2022-08-22T07:02:31.246Z,11.60
2022-08-22T07:05:41.373Z,14.10
2022-08-22T07:08:49.344Z,15.10
2022-08-22T07:11:59.455Z,14.60
2022-08-22T07:15:07.331Z,11.80
2022-08-22T07:18:15.371Z,10.50
2022-08-22T07:21:25.365Z,13.70
2022-08-22T07:24:34.354Z,12.20
2022-08-22T07:27:58.598Z,12.60
2022-08-22T07:31:08.411Z,13.90
2022-08-22T07:34:54.399Z,13.00
2022-08-22T07:38:21.423Z,16.40
2022-08-22T07:41:31.407Z,14.60
2022-08-22T07:44:38.409Z,11.30
2022-08-22T07:47:49.529Z,15.70
2022-08-22T07:50:57.580Z,11.90
2022-08-22T07:54:05.485Z,14.40
2022-08-22T07:57:15.517Z,14.70
2022-08-22T08:00:35.476Z,11.50
2022-08-22T08:03:48.495Z,12.60
2022-08-22T08:06:58.479Z,15.00
2022-08-22T08:10:07.128Z,12.50
2022-08-22T08:13:17.661Z,11.40
2022-08-22T08:16:27.593Z,11.00
2022-08-22T08:19:46.555Z,11.70
2022-08-22T08:22:54.503Z,12.10
2022-08-22T08:26:09.529Z,12.60
2022-08-22T08:29:22.601Z,12.20
2022-08-22T08:32:43.573Z,12.50
2022-08-22T08:36:02.514Z,11.70
2022-08-22T08:39:15.605Z,12.20
2022-08-22T08:42:30.613Z,12.80
2022-08-22T08:45:59.548Z,14.30
2022-08-22T08:49:09.604Z,13.70
2022-08-22T08:55:49.560Z,14.60
2022-08-22T08:59:02.711Z,12.40
2022-08-22T09:02:09.601Z,12.10
2022-08-22T09:05:24.473Z,14.80
2022-08-22T09:08:40.635Z,12.40
2022-08-22T09:11:53.689Z,10.60
2022-08-22T09:15:00.654Z,13.30
2022-08-22T09:18:12.332Z,9.30
2022-08-22T09:21:30.436Z,13.10
2022-08-22T09:24:44.720Z,12.40
2022-08-22T09:27:51.672Z,11.00
2022-08-22T09:30:59.762Z,13.90
2022-08-22T09:34:07.698Z,11.40
2022-08-22T09:37:20.692Z,14.00
2022-08-22T09:40:15.948Z,12.40
2022-08-22T09:43:34.736Z,13.60
2022-08-22T09:46:44.829Z,15.00
2022-08-22T09:49:52.814Z,11.30
2022-08-22T09:53:05.768Z,10.30
2022-08-22T09:56:15.832Z,11.70
2022-08-22T09:59:24.709Z,13.80
2022-08-22T10:02:19.800Z,10.60
2022-08-22T10:05:39.454Z,15.20
2022-08-22T10:08:50.834Z,12.30
2022-08-22T10:12:03.501Z,15.30
2022-08-22T10:15:10.828Z,18.20
2022-08-22T10:18:18.810Z,13.40
2022-08-22T10:21:31.833Z,14.00
2022-08-22T10:24:53.799Z,11.10
2022-08-22T10:28:05.916Z,11.80
2022-08-22T10:31:30.859Z,13.20
2022-08-22T10:34:28.883Z,13.40
2022-08-22T10:37:46.160Z,15.70
2022-08-22T10:41:01.057Z,10.10
2022-08-22T10:44:11.904Z,12.80
2022-08-22T10:47:25.914Z,14.00
2022-08-22T10:50:21.854Z,12.80
2022-08-22T10:53:36.209Z,13.50
2022-08-22T10:56:36.946Z,9.80
2022-08-22T11:02:37.012Z,10.70
2022-08-22T11:05:54.073Z,14.10
2022-08-22T11:09:09.010Z,11.70
2022-08-22T11:12:34.813Z,9.40
2022-08-22T11:15:45.923Z,9.90
2022-08-22T11:19:02.983Z,6.80
2022-08-22T11:22:25.028Z,10.90
2022-08-22T11:25:38.820Z,8.90
2022-08-22T11:28:50.896Z,11.80
2022-08-22T11:32:13.118Z,9.60
2022-08-22T11:35:24.032Z,9.60
2022-08-22T11:41:34.098Z,9.50
2022-08-22T11:47:35.045Z,9.90
2022-08-22T11:50:48.070Z,9.20
2022-08-22T11:54:22.209Z,10.20
2022-08-22T11:57:39.126Z,10.50
2022-08-22T12:00:55.214Z,9.40
2022-08-22T12:04:09.857Z,9.70
2022-08-22T12:07:23.176Z,9.60
2022-08-22T12:10:19.199Z,9.80
2022-08-22T12:13:35.028Z,12.60
2022-08-22T12:16:47.431Z,9.60
2022-08-22T12:20:16.158Z,11.30
2022-08-22T12:23:43.668Z,9.50
2022-08-22T12:27:07.887Z,12.00
2022-08-22T12:30:18.187Z,12.80
2022-08-22T12:33:29.172Z,8.90
2022-08-22T12:36:40.158Z,8.50
2022-08-22T12:39:50.164Z,10.60
2022-08-22T12:42:46.410Z,8.10
2022-08-22T12:45:59.224Z,9.40
2022-08-22T12:49:10.369Z,8.30
2022-08-22T12:52:23.195Z,7.20
2022-08-22T12:55:24.836Z,8.80
2022-08-22T12:58:36.259Z,7.60
2022-08-22T13:01:51.352Z,10.70
2022-08-22T13:05:03.275Z,7.10
2022-08-22T13:08:13.225Z,8.40
2022-08-22T13:11:27.306Z,10.10
2022-08-22T13:14:29.316Z,12.60
2022-08-22T13:17:42.365Z,13.00
2022-08-22T13:21:00.299Z,12.80
2022-08-22T13:24:16.913Z,12.80
2022-08-22T13:27:34.056Z,13.40
2022-08-22T13:34:20.286Z,17.10
2022-08-22T13:37:34.402Z,14.60
2022-08-22T13:40:46.422Z,14.70
2022-08-22T13:43:59.376Z,15.40
2022-08-22T13:47:14.517Z,17.60
2022-08-22T13:50:37.521Z,15.80
2022-08-22T13:54:10.818Z,17.20
2022-08-22T13:57:23.836Z,14.70
2022-08-22T14:00:32.345Z,16.90
2022-08-22T14:03:44.377Z,16.50
2022-08-22T14:10:02.908Z,33.50
2022-08-22T14:13:10.417Z,26.00
2022-08-22T14:16:22.523Z,19.80
2022-08-22T14:19:53.142Z,13.50
2022-08-22T14:23:07.304Z,14.50
2022-08-22T14:26:20.593Z,14.50
2022-08-22T14:29:40.497Z,18.20
2022-08-22T14:32:53.469Z,16.40
2022-08-22T14:36:06.476Z,11.20
2022-08-22T14:39:20.801Z,10.00
2022-08-22T14:42:33.940Z,10.20
2022-08-22T14:45:44.650Z,10.00
2022-08-22T14:48:58.597Z,8.90
2022-08-22T14:52:09.661Z,10.90
2022-08-22T14:55:21.580Z,8.60
2022-08-22T14:58:37.607Z,12.90
2022-08-22T15:01:53.718Z,10.80
2022-08-22T15:05:01.640Z,11.20
2022-08-22T15:08:14.651Z,16.70
2022-08-22T15:11:27.631Z,10.40
2022-08-22T15:14:52.060Z,12.10
2022-08-22T15:18:03.801Z,11.80
2022-08-22T15:20:59.762Z,6.90
2022-08-22T15:24:10.611Z,7.30
2022-08-22T15:27:20.657Z,8.10
2022-08-22T15:30:31.608Z,8.80
2022-08-22T15:33:43.330Z,9.60
2022-08-22T15:36:53.651Z,8.10
2022-08-22T15:40:25.777Z,7.50
2022-08-22T15:43:40.702Z,10.30
2022-08-22T15:46:51.636Z,12.50
2022-08-22T15:50:09.790Z,11.50
2022-08-22T15:53:27.708Z,9.70
2022-08-22T15:56:43.696Z,11.00
2022-08-22T16:00:12.329Z,7.90
2022-08-22T16:03:11.726Z,11.10
2022-08-22T16:09:16.755Z,7.90
2022-08-22T16:15:19.771Z,9.00
2022-08-22T16:18:54.714Z,9.20
2022-08-22T16:22:04.821Z,8.30
2022-08-22T16:25:14.765Z,9.80
2022-08-22T16:28:12.850Z,9.20
2022-08-22T16:31:27.846Z,8.50
2022-08-22T16:34:35.731Z,9.00
2022-08-22T16:37:58.931Z,10.50
2022-08-22T16:41:10.773Z,8.80
2022-08-22T16:44:17.788Z,10.20
2022-08-22T16:47:30.889Z,10.90
2022-08-22T16:50:41.848Z,11.70
2022-08-22T16:53:51.867Z,8.30
2022-08-22T16:56:49.846Z,10.90
2022-08-22T17:00:02.887Z,9.00
2022-08-22T17:02:58.866Z,9.20
2022-08-22T17:06:14.924Z,7.60
2022-08-22T17:09:28.882Z,10.50
2022-08-22T17:12:54.939Z,11.00
2022-08-22T17:16:05.985Z,10.30
2022-08-22T17:19:25.905Z,11.10
2022-08-22T17:22:43.945Z,7.50
2022-08-22T17:25:58.161Z,9.40
2022-08-22T17:29:07.910Z,10.50
2022-08-22T17:32:03.005Z,9.50
2022-08-22T17:35:15.959Z,13.00
2022-08-22T17:38:30.983Z,10.10
2022-08-22T17:41:43.898Z,10.80
2022-08-22T17:44:54.025Z,9.30
2022-08-22T17:48:01.980Z,11.30
2022-08-22T17:51:19.058Z,9.80
2022-08-22T17:54:39.981Z,10.00
2022-08-22T17:57:47.087Z,8.60
2022-08-22T18:00:47.129Z,8.70
2022-08-22T18:03:57.981Z,11.30
2022-08-22T18:07:11.066Z,11.20
2022-08-22T18:10:22.089Z,12.20
2022-08-22T18:13:33.013Z,11.60
2022-08-22T18:16:44.079Z,6.80
2022-08-22T18:19:54.143Z,7.70
2022-08-22T18:23:21.754Z,8.60
2022-08-22T18:26:59.099Z,8.10
2022-08-22T18:30:12.080Z,10.20
2022-08-22T18:33:25.111Z,10.80
2022-08-22T18:36:35.075Z,11.80
2022-08-22T18:39:42.617Z,12.60
2022-08-22T18:45:49.161Z,9.10
2022-08-22T18:49:17.268Z,9.80
2022-08-22T18:52:32.142Z,11.60
2022-08-22T18:55:47.226Z,8.90
2022-08-22T18:59:05.511Z,10.30
2022-08-22T19:02:14.138Z,10.60
2022-08-22T19:05:09.142Z,11.20
2022-08-22T19:08:30.257Z,9.10
2022-08-22T19:11:40.120Z,12.50
2022-08-22T19:14:50.224Z,10.40
2022-08-22T19:18:00.260Z,9.20
2022-08-22T19:21:13.891Z,7.60
2022-08-22T19:24:24.251Z,9.20
2022-08-22T19:27:37.201Z,11.20
2022-08-22T19:30:48.220Z,11.70
2022-08-22T19:34:07.254Z,11.00
2022-08-22T19:37:32.101Z,9.70
2022-08-22T19:41:12.244Z,8.90
2022-08-22T19:44:26.311Z,9.70
2022-08-22T19:47:39.290Z,10.30
2022-08-22T19:50:49.229Z,10.70
2022-08-22T19:53:59.293Z,11.90
2022-08-22T19:57:09.942Z,12.90
2022-08-22T20:00:23.362Z,9.50
2022-08-22T20:03:21.354Z,9.00
2022-08-22T20:09:24.392Z,8.60
2022-08-22T20:15:29.361Z,10.30
2022-08-22T20:18:53.478Z,13.00
2022-08-22T20:22:03.525Z,14.00
2022-08-22T20:25:16.840Z,11.80
2022-08-22T20:28:47.382Z,14.30
2022-08-22T20:31:58.918Z,12.70
2022-08-22T20:35:09.384Z,10.30
2022-08-22T20:38:22.382Z,9.90
2022-08-22T20:41:35.708Z,11.30
2022-08-22T20:44:31.671Z,9.00
2022-08-22T20:47:49.518Z,9.60
2022-08-22T20:51:00.493Z,12.10
2022-08-22T20:54:15.269Z,13.10
2022-08-22T20:57:25.467Z,9.30
2022-08-22T21:00:32.457Z,10.30
2022-08-22T21:03:30.602Z,9.80
2022-08-22T21:06:41.519Z,9.60
2022-08-22T21:09:51.505Z,7.70
2022-08-22T21:13:04.536Z,8.20
2022-08-22T21:16:03.519Z,7.10
2022-08-22T21:19:16.505Z,7.80
2022-08-22T21:22:23.450Z,8.60
2022-08-22T21:25:33.630Z,7.70
2022-08-22T21:28:48.576Z,9.60
2022-08-22T21:31:59.189Z,9.80
2022-08-22T21:35:14.561Z,9.40
2022-08-22T21:38:24.572Z,9.50
2022-08-22T21:41:37.644Z,7.00
2022-08-22T21:44:51.518Z,9.20
2022-08-22T21:47:49.665Z,8.80
2022-08-22T21:50:59.654Z,10.00
2022-08-22T21:54:18.242Z,9.60
2022-08-22T21:57:26.675Z,8.80
2022-08-22T22:00:33.699Z,9.10
2022-08-22T22:03:52.689Z,9.70
2022-08-22T22:07:05.620Z,8.80
2022-08-22T22:10:18.639Z,7.80
2022-08-22T22:13:28.671Z,9.90
2022-08-22T22:16:23.657Z,9.00
2022-08-22T22:19:33.616Z,16.60
2022-08-22T22:22:42.393Z,9.50
2022-08-22T22:25:59.753Z,9.10
2022-08-22T22:29:12.679Z,9.70
2022-08-22T22:32:21.639Z,8.00
2022-08-22T22:35:34.939Z,7.30
2022-08-22T22:38:47.942Z,9.40
2022-08-22T22:41:55.675Z,9.90
2022-08-22T22:45:06.863Z,9.00
2022-08-22T22:48:08.744Z,12.70
2022-08-22T22:51:21.832Z,9.90
2022-08-22T22:54:32.709Z,9.60
2022-08-22T22:57:42.669Z,9.80
2022-08-22T23:00:41.710Z,7.90
2022-08-22T23:03:53.802Z,8.50
2022-08-22T23:07:06.919Z,8.10
2022-08-22T23:10:22.078Z,9.60
2022-08-22T23:13:34.820Z,10.00
2022-08-22T23:16:46.869Z,9.00
2022-08-22T23:19:50.045Z,9.30
2022-08-22T23:23:04.877Z,11.50
2022-08-22T23:26:15.802Z,9.10
2022-08-22T23:29:23.804Z,12.30
2022-08-22T23:32:39.854Z,9.50
2022-08-22T23:39:30.107Z,10.10
2022-08-22T23:42:42.870Z,8.20
2022-08-22T23:45:52.905Z,9.10
2022-08-22T23:49:10.941Z,7.40
2022-08-22T23:55:35.953Z,9.30
2022-08-22T23:58:53.346Z,9.00
